createdAt,value
2017-07-09T00:02:07.999Z,2.53
2017-07-09T00:04:35.950Z,2.57
2017-07-09T00:07:03.869Z,2.40
2017-07-09T00:09:31.808Z,2.73
2017-07-09T00:11:59.730Z,2.23
2017-07-09T00:14:27.662Z,2.33
2017-07-09T00:16:55.633Z,2.60
2017-07-09T00:19:23.578Z,2.30
2017-07-09T00:21:51.509Z,2.47
2017-07-09T00:24:19.485Z,2.33
2017-07-09T00:26:47.410Z,2.40
2017-07-09T00:29:15.348Z,2.40
2017-07-09T00:31:43.266Z,2.73
2017-07-09T00:34:11.192Z,2.57
2017-07-09T00:36:39.117Z,2.27
2017-07-09T00:39:07.040Z,2.30
2017-07-09T00:41:34.983Z,2.40
2017-07-09T00:44:02.899Z,2.70
2017-07-09T00:46:30.822Z,2.30
2017-07-09T00:48:58.794Z,2.50
2017-07-09T00:51:26.710Z,2.53
2017-07-09T00:53:55.093Z,1.97
2017-07-09T00:56:23.024Z,2.33
2017-07-09T00:58:50.943Z,2.50
2017-07-09T01:01:18.870Z,2.50
2017-07-09T01:03:46.789Z,2.47
2017-07-09T01:06:14.742Z,2.13
2017-07-09T01:08:42.662Z,2.17
2017-07-09T01:11:10.573Z,2.10
2017-07-09T01:13:38.540Z,1.90
2017-07-09T01:16:06.483Z,2.60
2017-07-09T01:18:34.413Z,2.00
2017-07-09T01:21:02.349Z,2.23
2017-07-09T01:23:30.281Z,2.03
2017-07-09T01:25:58.222Z,2.37
2017-07-09T01:28:26.129Z,2.33
2017-07-09T01:30:54.070Z,2.37
2017-07-09T01:33:21.992Z,2.47
2017-07-09T01:35:49.910Z,1.90
2017-07-09T01:38:17.877Z,2.20
2017-07-09T01:40:45.813Z,2.17
2017-07-09T01:43:13.746Z,2.23
2017-07-09T01:45:41.665Z,1.80
2017-07-09T01:48:09.581Z,2.23
2017-07-09T01:50:37.549Z,2.23
2017-07-09T01:53:05.471Z,2.00
2017-07-09T01:55:33.422Z,2.27
2017-07-09T01:58:01.398Z,1.90
2017-07-09T02:00:29.332Z,2.20
2017-07-09T02:02:57.258Z,2.50
2017-07-09T02:05:25.189Z,2.37
2017-07-09T02:07:53.149Z,2.40
2017-07-09T02:10:21.070Z,2.20
2017-07-09T02:12:48.994Z,2.33
2017-07-09T02:15:16.938Z,2.30
2017-07-09T02:17:44.846Z,2.07
2017-07-09T02:20:12.766Z,1.97
2017-07-09T02:22:40.680Z,2.50
2017-07-09T02:25:08.645Z,2.30
2017-07-09T02:27:36.566Z,2.10
2017-07-09T02:30:04.489Z,2.03
2017-07-09T02:32:32.414Z,2.20
2017-07-09T02:35:00.338Z,2.10
2017-07-09T02:37:28.282Z,2.20
2017-07-09T02:39:56.196Z,2.23
2017-07-09T02:42:24.377Z,1.90
2017-07-09T02:44:52.738Z,2.00
2017-07-09T02:47:20.690Z,1.80
2017-07-09T02:49:49.090Z,2.33
2017-07-09T02:52:17.002Z,1.90
2017-07-09T02:54:44.920Z,2.00
2017-07-09T02:57:12.838Z,2.10
2017-07-09T02:59:40.775Z,2.70
2017-07-09T03:02:08.726Z,2.10
2017-07-09T03:04:36.639Z,2.17
2017-07-09T03:07:04.569Z,2.17
2017-07-09T03:09:32.559Z,2.10
2017-07-09T03:12:00.473Z,1.87
2017-07-09T03:14:28.438Z,2.20
2017-07-09T03:16:56.352Z,2.00
2017-07-09T03:19:24.274Z,2.30
2017-07-09T03:21:52.198Z,2.20
2017-07-09T03:24:20.116Z,2.37
2017-07-09T03:26:48.053Z,1.93
2017-07-09T03:29:15.977Z,2.20
2017-07-09T03:31:43.907Z,2.20
2017-07-09T03:34:11.828Z,2.03
2017-07-09T03:36:39.769Z,1.93
2017-07-09T03:39:07.723Z,2.00
2017-07-09T03:41:35.645Z,2.17
2017-07-09T03:44:03.576Z,2.00
2017-07-09T03:46:31.489Z,2.30
2017-07-09T03:48:59.409Z,2.47
2017-07-09T03:51:27.354Z,2.10
2017-07-09T03:53:55.287Z,2.33
2017-07-09T03:56:23.224Z,1.90
2017-07-09T03:58:51.140Z,2.20
2017-07-09T04:01:19.061Z,2.07
2017-07-09T04:03:47.035Z,2.23
2017-07-09T04:06:14.989Z,2.37
2017-07-09T04:08:42.942Z,1.90
2017-07-09T04:11:10.867Z,2.13
2017-07-09T04:13:38.825Z,2.00
2017-07-09T04:16:06.763Z,2.33
2017-07-09T04:18:34.697Z,2.03
2017-07-09T04:21:02.624Z,2.17
2017-07-09T04:23:30.549Z,2.50
2017-07-09T04:25:58.479Z,2.00
2017-07-09T04:28:26.436Z,2.13
2017-07-09T04:30:54.371Z,2.17
2017-07-09T04:33:22.303Z,2.17
2017-07-09T04:35:50.238Z,2.07
2017-07-09T04:38:18.170Z,2.50
2017-07-09T04:40:46.115Z,2.33
2017-07-09T04:43:14.042Z,2.00
2017-07-09T04:45:41.978Z,2.33
2017-07-09T04:48:09.902Z,2.10
2017-07-09T04:50:37.834Z,2.27
2017-07-09T04:53:05.774Z,2.10
2017-07-09T04:55:33.701Z,2.10
2017-07-09T04:58:01.637Z,2.27
2017-07-09T05:00:29.565Z,1.90
2017-07-09T05:02:57.483Z,2.07
2017-07-09T05:05:25.418Z,2.03
2017-07-09T05:07:53.329Z,2.30
2017-07-09T05:10:21.261Z,1.80
2017-07-09T05:12:49.220Z,2.30
2017-07-09T05:15:17.171Z,2.20
2017-07-09T05:17:45.363Z,2.10
2017-07-09T05:20:13.314Z,2.10
2017-07-09T05:22:41.257Z,2.07
2017-07-09T05:25:09.193Z,2.10
2017-07-09T05:27:37.117Z,2.30
2017-07-09T05:30:05.039Z,1.90
2017-07-09T05:32:33.022Z,2.00
2017-07-09T05:35:00.979Z,2.10
2017-07-09T05:37:28.914Z,2.10
2017-07-09T05:39:56.857Z,2.00
2017-07-09T05:42:24.774Z,2.00
2017-07-09T05:44:52.853Z,2.10
2017-07-09T05:47:21.151Z,2.27
2017-07-09T05:49:49.110Z,2.30
2017-07-09T05:52:17.043Z,2.00
2017-07-09T05:54:45.136Z,2.10
2017-07-09T05:57:13.049Z,2.10
2017-07-09T05:59:41.008Z,2.73
2017-07-09T06:02:08.954Z,6.50
2017-07-09T06:04:37.166Z,7.90
2017-07-09T06:07:05.169Z,7.67
2017-07-09T06:09:33.118Z,7.90
2017-07-09T06:12:01.079Z,5.17
2017-07-09T06:14:29.011Z,3.80
2017-07-09T06:16:57.276Z,3.10
2017-07-09T06:19:25.207Z,3.70
2017-07-09T06:21:53.150Z,3.57
2017-07-09T06:24:21.090Z,3.10
2017-07-09T06:26:49.033Z,2.90
2017-07-09T06:29:16.958Z,3.03
2017-07-09T06:31:45.793Z,2.80
2017-07-09T06:34:13.725Z,3.00
2017-07-09T06:36:41.684Z,3.03
2017-07-09T06:39:09.654Z,2.83
2017-07-09T06:41:38.023Z,3.30
2017-07-09T06:44:06.130Z,3.20
2017-07-09T06:46:34.386Z,3.70
2017-07-09T06:51:38.999Z,2.70
2017-07-09T06:54:07.309Z,2.20
2017-07-09T06:56:35.303Z,2.17
2017-07-09T06:59:03.258Z,1.97
2017-07-09T07:01:31.190Z,1.93
2017-07-09T07:03:59.798Z,1.80
2017-07-09T07:06:27.782Z,2.10
2017-07-09T07:08:55.676Z,2.20
2017-07-09T07:11:23.625Z,1.67
2017-07-09T07:13:51.597Z,1.63
2017-07-09T07:16:19.539Z,1.67
2017-07-09T07:18:47.490Z,1.50
2017-07-09T07:21:15.418Z,1.67
2017-07-09T07:23:43.340Z,1.30
2017-07-09T07:26:11.292Z,2.00
2017-07-09T07:28:39.227Z,1.60
2017-07-09T07:31:07.167Z,1.60
2017-07-09T07:33:35.102Z,1.90
2017-07-09T07:36:03.049Z,1.60
2017-07-09T07:38:31.009Z,1.30
2017-07-09T07:40:58.942Z,1.67
2017-07-09T07:43:26.872Z,1.90
2017-07-09T07:45:54.814Z,2.33
2017-07-09T07:48:22.889Z,2.03
2017-07-09T07:50:50.962Z,2.10
2017-07-09T07:53:18.890Z,2.07
2017-07-09T07:55:46.818Z,1.67
2017-07-09T07:58:14.765Z,1.93
2017-07-09T08:00:42.849Z,1.77
2017-07-09T08:03:10.786Z,1.83
2017-07-09T08:05:38.763Z,1.83
2017-07-09T08:08:06.704Z,1.57
2017-07-09T08:10:34.668Z,1.53
2017-07-09T08:13:02.623Z,2.60
2017-07-09T08:15:30.618Z,1.73
2017-07-09T08:17:58.642Z,1.77
2017-07-09T08:20:26.828Z,1.90
2017-07-09T08:22:54.957Z,1.60
2017-07-09T08:25:22.943Z,2.00
2017-07-09T08:27:51.002Z,2.07
2017-07-09T08:30:19.091Z,2.50
2017-07-09T08:32:47.108Z,2.20
2017-07-09T08:35:15.080Z,2.33
2017-07-09T08:37:43.058Z,2.10
2017-07-09T08:40:11.091Z,2.97
2017-07-09T08:42:39.121Z,6.07
2017-07-09T08:45:07.170Z,3.90
2017-07-09T08:47:35.509Z,2.97
2017-07-09T08:50:03.662Z,2.73
2017-07-09T08:52:31.825Z,2.70
2017-07-09T08:55:00.058Z,2.43
2017-07-09T08:57:28.423Z,2.80
2017-07-09T08:59:56.494Z,2.73
2017-07-09T09:02:24.493Z,2.63
2017-07-09T09:04:52.565Z,2.57
2017-07-09T09:07:20.783Z,2.90
2017-07-09T09:09:48.819Z,2.30
2017-07-09T09:12:16.839Z,1.90
2017-07-09T09:14:44.961Z,2.10
2017-07-09T09:17:12.933Z,2.13
2017-07-09T09:19:40.851Z,2.30
2017-07-09T09:22:08.890Z,2.63
2017-07-09T09:24:36.836Z,2.73
2017-07-09T09:27:04.797Z,2.30
2017-07-09T09:29:32.768Z,2.20
2017-07-09T09:32:00.718Z,2.60
2017-07-09T09:34:29.199Z,2.80
2017-07-09T09:36:58.184Z,2.30
2017-07-09T09:39:27.304Z,2.17
2017-07-09T09:41:55.815Z,2.47
2017-07-09T09:44:24.500Z,2.30
2017-07-09T09:46:53.478Z,1.93
2017-07-09T09:49:22.511Z,2.60
2017-07-09T09:51:51.571Z,2.40
2017-07-09T09:54:20.473Z,2.43
2017-07-09T09:56:49.349Z,2.00
2017-07-09T09:59:18.181Z,1.90
2017-07-09T10:01:46.971Z,1.80
2017-07-09T10:04:16.052Z,1.97
2017-07-09T10:06:46.945Z,2.10
2017-07-09T10:09:15.637Z,1.97
2017-07-09T10:11:44.452Z,2.10
2017-07-09T10:14:13.236Z,1.87
2017-07-09T10:16:42.097Z,2.07
2017-07-09T10:19:10.639Z,2.10
2017-07-09T10:21:39.107Z,2.27
2017-07-09T10:24:08.042Z,1.90
2017-07-09T10:26:36.837Z,1.60
2017-07-09T10:29:05.582Z,1.63
2017-07-09T10:31:34.465Z,1.60
2017-07-09T10:34:03.386Z,1.67
2017-07-09T10:36:31.953Z,2.20
2017-07-09T10:39:00.486Z,2.30
2017-07-09T10:41:29.765Z,1.57
2017-07-09T10:43:57.944Z,1.83
2017-07-09T10:46:37.420Z,2.00
2017-07-09T10:49:06.475Z,1.70
2017-07-09T10:51:35.255Z,1.90
2017-07-09T10:54:03.290Z,2.20
2017-07-09T10:56:31.360Z,1.50
2017-07-09T10:58:59.391Z,1.60
2017-07-09T11:01:27.467Z,1.47
2017-07-09T11:03:55.502Z,1.17
2017-07-09T11:06:23.565Z,1.53
2017-07-09T11:08:51.541Z,1.63
2017-07-09T11:11:19.480Z,1.60
2017-07-09T11:13:47.412Z,1.43
2017-07-09T11:16:15.345Z,1.30
2017-07-09T11:18:43.282Z,1.53
2017-07-09T11:21:11.191Z,1.47
2017-07-09T11:23:39.127Z,1.50
2017-07-09T11:26:07.135Z,1.50
2017-07-09T11:28:35.072Z,1.37
2017-07-09T11:31:03.002Z,1.30
2017-07-09T11:33:30.938Z,1.40
2017-07-09T11:35:58.865Z,1.33
2017-07-09T11:38:26.800Z,1.40
2017-07-09T11:40:54.709Z,1.33
2017-07-09T11:43:22.663Z,1.13
2017-07-09T11:45:53.203Z,1.40
2017-07-09T11:48:21.284Z,1.20
2017-07-09T11:50:52.152Z,1.40
2017-07-09T11:53:20.201Z,1.53
2017-07-09T11:55:48.114Z,1.50
2017-07-09T11:58:16.040Z,1.33
2017-07-09T12:00:43.966Z,1.60
2017-07-09T12:03:11.868Z,1.37
2017-07-09T12:05:39.796Z,1.73
2017-07-09T12:08:07.719Z,1.60
2017-07-09T12:10:35.665Z,1.40
2017-07-09T12:13:03.689Z,1.60
2017-07-09T12:15:31.674Z,1.70
2017-07-09T12:17:59.608Z,1.60
2017-07-09T12:20:27.533Z,2.20
2017-07-09T12:22:55.464Z,1.70
2017-07-09T12:25:23.378Z,1.63
2017-07-09T12:27:51.305Z,1.90
2017-07-09T12:30:19.997Z,1.70
2017-07-09T12:32:47.915Z,1.30
2017-07-09T12:35:15.851Z,1.50
2017-07-09T12:37:43.755Z,1.60
2017-07-09T12:40:18.609Z,2.10
2017-07-09T12:42:46.528Z,1.70
2017-07-09T12:45:14.467Z,1.70
2017-07-09T12:47:42.365Z,1.90
2017-07-09T12:50:10.270Z,1.80
2017-07-09T12:52:38.216Z,1.90
2017-07-09T12:55:06.280Z,2.20
2017-07-09T12:57:34.212Z,1.90
2017-07-09T13:00:02.133Z,1.97
2017-07-09T13:02:30.038Z,1.70
2017-07-09T13:04:57.992Z,2.00
2017-07-09T13:07:25.897Z,1.80
2017-07-09T13:09:53.823Z,1.80
2017-07-09T13:12:21.731Z,1.50
2017-07-09T13:14:49.928Z,1.80
2017-07-09T13:17:18.199Z,1.70
2017-07-09T13:19:46.226Z,1.80
2017-07-09T13:22:14.129Z,1.80
2017-07-09T13:24:42.061Z,1.80
2017-07-09T13:27:09.981Z,1.60
2017-07-09T13:29:39.248Z,1.70
2017-07-09T13:35:01.161Z,1.53
2017-07-09T13:37:30.504Z,1.43
2017-07-09T13:39:58.516Z,1.50
2017-07-09T13:42:27.198Z,1.73
2017-07-09T13:44:55.853Z,1.70
2017-07-09T13:47:23.777Z,1.60
2017-07-09T13:49:51.684Z,1.60
2017-07-09T13:52:19.619Z,1.47
2017-07-09T13:54:47.526Z,1.70
2017-07-09T13:57:15.436Z,1.40
2017-07-09T13:59:43.352Z,1.57
2017-07-09T14:02:11.270Z,1.63
2017-07-09T14:04:39.205Z,1.37
2017-07-09T14:07:07.196Z,1.87
2017-07-09T14:09:35.094Z,1.90
2017-07-09T14:12:03.794Z,1.47
2017-07-09T14:14:33.882Z,1.70
2017-07-09T14:17:07.584Z,1.70
2017-07-09T14:19:36.482Z,1.80
2017-07-09T14:22:05.710Z,1.80
2017-07-09T14:24:36.242Z,1.93
2017-07-09T14:27:05.317Z,1.13
2017-07-09T14:29:34.761Z,1.70
2017-07-09T14:32:05.030Z,1.73
2017-07-09T14:34:33.525Z,1.80
2017-07-09T14:37:03.995Z,2.43
2017-07-09T14:39:34.369Z,2.00
2017-07-09T14:42:02.335Z,1.80
2017-07-09T14:44:30.270Z,1.63
2017-07-09T14:46:58.162Z,1.37
2017-07-09T14:49:26.197Z,1.20
2017-07-09T14:51:54.088Z,1.40
2017-07-09T14:54:22.005Z,1.43
2017-07-09T14:56:49.921Z,1.30
2017-07-09T14:59:17.963Z,1.50
2017-07-09T15:01:45.865Z,1.60
2017-07-09T15:04:13.785Z,1.50
2017-07-09T15:06:41.708Z,1.20
2017-07-09T15:09:09.631Z,1.20
2017-07-09T15:11:37.544Z,1.30
2017-07-09T15:14:05.465Z,1.30
2017-07-09T15:16:33.388Z,1.53
2017-07-09T15:19:01.382Z,1.57
2017-07-09T15:21:29.306Z,1.83
2017-07-09T15:23:57.313Z,1.37
2017-07-09T15:26:25.217Z,2.73
2017-07-09T15:28:53.204Z,3.27
2017-07-09T15:31:21.102Z,2.00
2017-07-09T15:33:49.006Z,1.70
2017-07-09T15:36:16.911Z,1.47
2017-07-09T15:38:44.818Z,1.53
2017-07-09T15:41:12.766Z,1.30
2017-07-09T15:43:40.681Z,1.30
2017-07-09T15:46:08.589Z,1.40
2017-07-09T15:48:36.484Z,1.50
2017-07-09T15:51:04.397Z,1.40
2017-07-09T15:53:32.334Z,1.50
2017-07-09T15:56:00.267Z,1.60
2017-07-09T15:58:28.188Z,1.40
2017-07-09T16:00:56.126Z,1.73
2017-07-09T16:03:24.045Z,1.90
2017-07-09T16:05:52.012Z,2.40
2017-07-09T16:08:19.928Z,2.37
2017-07-09T16:10:47.840Z,1.70
2017-07-09T16:13:21.622Z,1.60
2017-07-09T16:15:57.939Z,1.60
2017-07-09T16:18:25.887Z,1.60
2017-07-09T16:20:53.795Z,1.53
2017-07-09T16:23:22.618Z,1.70
2017-07-09T16:25:50.543Z,1.37
2017-07-09T16:28:18.488Z,1.70
2017-07-09T16:30:46.392Z,2.00
2017-07-09T16:33:14.303Z,1.80
2017-07-09T16:35:42.250Z,2.00
2017-07-09T16:38:10.157Z,1.97
2017-07-09T16:40:38.078Z,1.73
2017-07-09T16:43:05.987Z,1.90
2017-07-09T16:45:33.892Z,1.80
2017-07-09T16:48:01.908Z,1.90
2017-07-09T16:50:29.880Z,1.87
2017-07-09T16:52:57.832Z,2.13
2017-07-09T16:55:25.873Z,1.90
2017-07-09T16:57:53.899Z,1.97
2017-07-09T17:00:22.368Z,2.13
2017-07-09T17:02:50.286Z,1.90
2017-07-09T17:05:18.193Z,1.90
2017-07-09T17:07:46.321Z,1.87
2017-07-09T17:10:14.680Z,1.70
2017-07-09T17:12:42.589Z,1.87
2017-07-09T17:15:10.507Z,1.70
2017-07-09T17:17:38.442Z,1.70
2017-07-09T17:20:06.502Z,1.90
2017-07-09T17:22:34.417Z,1.77
2017-07-09T17:25:02.320Z,1.87
2017-07-09T17:27:30.235Z,1.80
2017-07-09T17:29:58.143Z,2.17
2017-07-09T17:32:26.090Z,2.40
2017-07-09T17:34:54.230Z,2.10
2017-07-09T17:37:22.136Z,2.50
2017-07-09T17:39:50.173Z,1.90
2017-07-09T17:42:18.158Z,1.90
2017-07-09T17:44:46.139Z,1.83
2017-07-09T17:47:14.078Z,1.70
2017-07-09T17:49:41.993Z,1.80
2017-07-09T17:52:10.013Z,1.70
2017-07-09T17:54:37.937Z,1.70
2017-07-09T17:57:06.068Z,1.90
2017-07-09T17:59:33.991Z,1.67
2017-07-09T18:02:01.950Z,1.83
2017-07-09T18:04:29.862Z,1.70
2017-07-09T18:06:57.781Z,1.93
2017-07-09T18:09:26.223Z,1.83
2017-07-09T18:11:54.137Z,1.50
2017-07-09T18:14:22.050Z,1.83
2017-07-09T18:16:49.991Z,1.30
2017-07-09T18:19:18.880Z,1.50
2017-07-09T18:21:48.022Z,1.70
2017-07-09T18:24:17.223Z,1.60
2017-07-09T18:26:45.971Z,1.40
2017-07-09T18:29:14.093Z,1.50
2017-07-09T18:31:42.002Z,1.70
2017-07-09T18:34:10.217Z,1.83
2017-07-09T18:36:38.130Z,1.73
2017-07-09T18:39:06.475Z,1.67
2017-07-09T18:41:34.402Z,1.97
2017-07-09T18:44:02.328Z,1.60
2017-07-09T18:46:30.237Z,1.40
2017-07-09T18:48:58.155Z,1.80
2017-07-09T18:51:26.099Z,1.80
2017-07-09T18:53:54.170Z,1.80
2017-07-09T18:56:22.242Z,1.80
2017-07-09T18:58:50.482Z,1.80
2017-07-09T19:01:18.589Z,1.87
2017-07-09T19:03:46.536Z,1.80
2017-07-09T19:06:14.467Z,1.77
2017-07-09T19:08:42.382Z,1.70
2017-07-09T19:11:10.310Z,1.87
2017-07-09T19:13:38.332Z,1.70
2017-07-09T19:16:06.363Z,1.50
2017-07-09T19:18:34.302Z,1.83
2017-07-09T19:21:02.229Z,1.70
2017-07-09T19:23:30.525Z,1.57
2017-07-09T19:25:58.728Z,1.80
2017-07-09T19:28:26.627Z,1.83
2017-07-09T19:30:54.532Z,1.90
2017-07-09T19:33:22.672Z,2.07
2017-07-09T19:35:50.682Z,1.60
2017-07-09T19:38:18.596Z,1.90
2017-07-09T19:40:47.212Z,1.80
2017-07-09T19:43:15.136Z,2.07
2017-07-09T19:45:43.378Z,1.97
2017-07-09T19:48:11.494Z,2.03
2017-07-09T19:50:39.439Z,2.00
2017-07-09T19:53:07.478Z,1.87
2017-07-09T19:55:35.497Z,2.17
2017-07-09T19:58:03.610Z,1.70
2017-07-09T20:00:31.783Z,2.00
2017-07-09T20:02:59.887Z,2.03
2017-07-09T20:05:28.033Z,2.00
2017-07-09T20:07:56.156Z,1.80
2017-07-09T20:10:24.312Z,2.07
2017-07-09T20:12:52.234Z,2.20
2017-07-09T20:15:20.293Z,1.77
2017-07-09T20:17:48.224Z,1.67
2017-07-09T20:20:16.635Z,2.00
2017-07-09T20:22:44.599Z,1.87
2017-07-09T20:25:12.769Z,1.40
2017-07-09T20:27:40.939Z,1.57
2017-07-09T20:30:09.002Z,1.87
2017-07-09T20:32:36.927Z,1.87
2017-07-09T20:35:04.885Z,1.87
2017-07-09T20:37:32.853Z,2.00
2017-07-09T20:40:00.913Z,1.77
2017-07-09T20:42:29.095Z,1.60
2017-07-09T20:44:57.207Z,1.80
2017-07-09T20:47:25.114Z,1.73
2017-07-09T20:49:53.321Z,1.53
2017-07-09T20:52:21.422Z,1.63
2017-07-09T20:54:49.455Z,1.63
2017-07-09T20:57:17.358Z,1.40
2017-07-09T20:59:45.274Z,1.60
2017-07-09T21:02:13.236Z,1.30
2017-07-09T21:04:41.311Z,1.80
2017-07-09T21:07:09.392Z,1.30
2017-07-09T21:09:37.504Z,1.63
2017-07-09T21:12:05.632Z,1.57
2017-07-09T21:14:33.860Z,1.53
2017-07-09T21:17:01.950Z,1.43
2017-07-09T21:19:30.094Z,1.67
2017-07-09T21:21:58.288Z,1.63
2017-07-09T21:24:26.227Z,1.50
2017-07-09T21:26:54.371Z,1.70
2017-07-09T21:29:22.472Z,1.60
2017-07-09T21:31:50.455Z,1.63
2017-07-09T21:34:18.546Z,1.93
2017-07-09T21:36:47.023Z,1.60
2017-07-09T21:39:15.137Z,1.57
2017-07-09T21:41:43.050Z,1.83
2017-07-09T21:44:10.953Z,1.83
2017-07-09T21:46:38.939Z,2.33
2017-07-09T21:49:06.966Z,1.90
2017-07-09T21:51:35.047Z,1.73
2017-07-09T21:54:03.094Z,1.90
2017-07-09T21:56:31.169Z,1.67
2017-07-09T21:58:59.422Z,1.80
2017-07-09T22:01:27.357Z,2.40
2017-07-09T22:03:55.526Z,1.70
2017-07-09T22:06:23.433Z,1.80
2017-07-09T22:08:51.477Z,1.60
2017-07-09T22:11:19.456Z,1.80
2017-07-09T22:13:47.372Z,1.67
2017-07-09T22:16:15.297Z,1.80
2017-07-09T22:18:43.201Z,1.90
2017-07-09T22:21:11.110Z,1.80
2017-07-09T22:23:39.145Z,1.80
2017-07-09T22:26:07.049Z,2.13
2017-07-09T22:28:34.985Z,2.00
2017-07-09T22:31:02.882Z,2.20
2017-07-09T22:33:30.778Z,1.93
2017-07-09T22:35:58.688Z,1.90
2017-07-09T22:38:26.588Z,2.00
2017-07-09T22:40:54.520Z,2.27
2017-07-09T22:43:23.321Z,1.97
2017-07-09T22:45:51.301Z,2.40
2017-07-09T22:48:19.640Z,2.30
2017-07-09T22:50:47.558Z,1.97
2017-07-09T22:53:15.520Z,2.40
2017-07-09T22:55:43.419Z,2.10
2017-07-09T22:58:11.348Z,2.13
2017-07-09T23:00:40.047Z,2.00
2017-07-09T23:03:08.008Z,2.10
2017-07-09T23:05:35.923Z,2.13
2017-07-09T23:08:03.832Z,2.50
2017-07-09T23:10:31.744Z,2.10
2017-07-09T23:12:59.642Z,2.00
2017-07-09T23:15:27.556Z,2.30
2017-07-09T23:17:55.465Z,2.53
2017-07-09T23:20:23.367Z,2.57
2017-07-09T23:22:51.290Z,2.60
2017-07-09T23:25:19.186Z,2.30
2017-07-09T23:27:47.111Z,2.30
2017-07-09T23:30:15.021Z,2.10
2017-07-09T23:32:42.924Z,2.37
2017-07-09T23:35:10.852Z,2.10
2017-07-09T23:37:38.751Z,1.90
2017-07-09T23:40:06.680Z,2.47
2017-07-09T23:42:34.577Z,2.10
2017-07-09T23:45:02.489Z,2.40
2017-07-09T23:47:30.425Z,2.50
2017-07-09T23:49:58.343Z,2.10
2017-07-09T23:52:26.243Z,2.00
2017-07-09T23:54:54.155Z,2.10
2017-07-09T23:57:22.063Z,1.80
2017-07-09T23:59:50.009Z,2.20
